Nesco, New Jersey
Current Conditions -  °F | °C
As of 12:54 AM on Thursday 27 Nov 2014 (Local Time) from KACY Reporting Station
Overcast Overcast  
Wind Chill: 29°   Ceiling: 2000
Heat Index: 36°   Visibility: 10mi
Dew Point: 34°   Wind: 9mph
Humidity: 93%   Direction: 290°WNW
Pressure: 29.92"   Gusts: NA
Location:  39.637°N, 74.7602°W
Report Text: KACY 270554Z 29008KT 10SM OVC020 02/01 A2992 RMK AO2 SLP132 60001 T00220011 10028 20017 51028
Loading
Personal Weather Stations






























Interactive Weather Map New forecast layout! Learn more

10-Day Weather Forecast

Advertisements
Track Severe Weather on mobile